sensor_id;sensor_type;location;lat;lon;timestamp;P1;durP1;ratioP1;P2;durP2;ratioP2
10811;SDS011;5458;51.496;7.334;2023-04-30T00:01:48;11.40;;;7.60;;
10811;SDS011;5458;51.496;7.334;2023-04-30T00:04:13;9.40;;;7.85;;
10811;SDS011;5458;51.496;7.334;2023-04-30T00:06:39;12.10;;;9.00;;
10811;SDS011;5458;51.496;7.334;2023-04-30T00:09:05;13.23;;;7.82;;
10811;SDS011;5458;51.496;7.334;2023-04-30T00:11:30;10.35;;;8.23;;
10811;SDS011;5458;51.496;7.334;2023-04-30T00:13:56;11.95;;;8.38;;
10811;SDS011;5458;51.496;7.334;2023-04-30T00:16:22;10.75;;;7.95;;
10811;SDS011;5458;51.496;7.334;2023-04-30T00:18:47;10.68;;;8.30;;
10811;SDS011;5458;51.496;7.334;2023-04-30T00:21:13;11.50;;;9.15;;
10811;SDS011;5458;51.496;7.334;2023-04-30T00:23:38;12.07;;;8.30;;
10811;SDS011;5458;51.496;7.334;2023-04-30T00:26:04;12.25;;;8.38;;
10811;SDS011;5458;51.496;7.334;2023-04-30T00:28:29;9.02;;;7.72;;
10811;SDS011;5458;51.496;7.334;2023-04-30T00:30:55;9.95;;;7.97;;
10811;SDS011;5458;51.496;7.334;2023-04-30T00:33:21;12.43;;;9.57;;
10811;SDS011;5458;51.496;7.334;2023-04-30T00:35:46;10.18;;;8.20;;
10811;SDS011;5458;51.496;7.334;2023-04-30T00:38:12;11.65;;;8.50;;
10811;SDS011;5458;51.496;7.334;2023-04-30T00:40:37;11.00;;;9.43;;
10811;SDS011;5458;51.496;7.334;2023-04-30T00:43:08;10.13;;;8.65;;
10811;SDS011;5458;51.496;7.334;2023-04-30T00:45:34;12.82;;;9.68;;
10811;SDS011;5458;51.496;7.334;2023-04-30T00:47:59;11.18;;;8.75;;
10811;SDS011;5458;51.496;7.334;2023-04-30T00:50:25;11.60;;;8.82;;
10811;SDS011;5458;51.496;7.334;2023-04-30T00:52:51;11.50;;;8.55;;
10811;SDS011;5458;51.496;7.334;2023-04-30T00:55:17;10.90;;;8.40;;
10811;SDS011;5458;51.496;7.334;2023-04-30T00:57:42;10.32;;;8.93;;
10811;SDS011;5458;51.496;7.334;2023-04-30T01:00:08;11.15;;;8.38;;
10811;SDS011;5458;51.496;7.334;2023-04-30T01:02:35;11.30;;;9.23;;
10811;SDS011;5458;51.496;7.334;2023-04-30T01:05:01;10.75;;;9.60;;
10811;SDS011;5458;51.496;7.334;2023-04-30T01:07:27;11.75;;;8.90;;
10811;SDS011;5458;51.496;7.334;2023-04-30T01:09:54;14.35;;;9.25;;
10811;SDS011;5458;51.496;7.334;2023-04-30T01:12:40;11.48;;;9.13;;
10811;SDS011;5458;51.496;7.334;2023-04-30T01:15:20;12.27;;;9.27;;
10811;SDS011;5458;51.496;7.334;2023-04-30T01:21:03;12.27;;;9.23;;
10811;SDS011;5458;51.496;7.334;2023-04-30T01:23:54;13.93;;;9.50;;
10811;SDS011;5458;51.496;7.334;2023-04-30T01:26:47;14.43;;;8.93;;
10811;SDS011;5458;51.496;7.334;2023-04-30T01:29:24;10.35;;;9.00;;
10811;SDS011;5458;51.496;7.334;2023-04-30T01:31:51;10.98;;;9.13;;
10811;SDS011;5458;51.496;7.334;2023-04-30T01:34:17;11.80;;;8.75;;
10811;SDS011;5458;51.496;7.334;2023-04-30T01:36:54;10.05;;;8.95;;
10811;SDS011;5458;51.496;7.334;2023-04-30T01:39:34;10.60;;;8.68;;
10811;SDS011;5458;51.496;7.334;2023-04-30T01:42:11;14.68;;;10.32;;
10811;SDS011;5458;51.496;7.334;2023-04-30T01:53:20;11.23;;;10.02;;
10811;SDS011;5458;51.496;7.334;2023-04-30T01:56:10;11.82;;;10.45;;
10811;SDS011;5458;51.496;7.334;2023-04-30T01:58:36;11.07;;;9.90;;
10811;SDS011;5458;51.496;7.334;2023-04-30T02:01:03;15.57;;;10.10;;
10811;SDS011;5458;51.496;7.334;2023-04-30T02:03:29;13.50;;;11.20;;
10811;SDS011;5458;51.496;7.334;2023-04-30T02:05:56;12.73;;;9.77;;
10811;SDS011;5458;51.496;7.334;2023-04-30T02:08:23;10.57;;;9.50;;
10811;SDS011;5458;51.496;7.334;2023-04-30T02:10:48;10.77;;;9.48;;
10811;SDS011;5458;51.496;7.334;2023-04-30T02:13:14;14.57;;;10.18;;
10811;SDS011;5458;51.496;7.334;2023-04-30T02:15:39;10.60;;;9.35;;
10811;SDS011;5458;51.496;7.334;2023-04-30T02:18:05;9.93;;;8.90;;
10811;SDS011;5458;51.496;7.334;2023-04-30T02:20:31;14.50;;;9.82;;
10811;SDS011;5458;51.496;7.334;2023-04-30T02:22:56;12.48;;;9.82;;
10811;SDS011;5458;51.496;7.334;2023-04-30T02:25:22;10.80;;;9.20;;
10811;SDS011;5458;51.496;7.334;2023-04-30T02:27:47;10.55;;;9.27;;
10811;SDS011;5458;51.496;7.334;2023-04-30T02:30:14;14.43;;;9.50;;
10811;SDS011;5458;51.496;7.334;2023-04-30T02:32:40;10.88;;;9.77;;
10811;SDS011;5458;51.496;7.334;2023-04-30T02:35:05;12.52;;;9.60;;
10811;SDS011;5458;51.496;7.334;2023-04-30T02:37:31;10.20;;;9.20;;
10811;SDS011;5458;51.496;7.334;2023-04-30T02:39:57;11.77;;;10.00;;
10811;SDS011;5458;51.496;7.334;2023-04-30T02:42:22;12.60;;;9.77;;
10811;SDS011;5458;51.496;7.334;2023-04-30T02:44:48;12.32;;;10.27;;
10811;SDS011;5458;51.496;7.334;2023-04-30T02:47:13;12.25;;;9.07;;
10811;SDS011;5458;51.496;7.334;2023-04-30T02:49:39;11.07;;;9.88;;
10811;SDS011;5458;51.496;7.334;2023-04-30T02:52:04;10.23;;;9.20;;
10811;SDS011;5458;51.496;7.334;2023-04-30T02:54:33;11.18;;;9.93;;
10811;SDS011;5458;51.496;7.334;2023-04-30T02:56:59;13.35;;;10.18;;
10811;SDS011;5458;51.496;7.334;2023-04-30T02:59:24;13.52;;;10.15;;
10811;SDS011;5458;51.496;7.334;2023-04-30T03:01:51;11.38;;;10.15;;
10811;SDS011;5458;51.496;7.334;2023-04-30T03:04:16;12.85;;;9.85;;
10811;SDS011;5458;51.496;7.334;2023-04-30T03:06:42;12.02;;;10.02;;
10811;SDS011;5458;51.496;7.334;2023-04-30T03:09:07;12.07;;;8.90;;
10811;SDS011;5458;51.496;7.334;2023-04-30T03:11:33;11.70;;;9.30;;
10811;SDS011;5458;51.496;7.334;2023-04-30T03:14:01;10.77;;;9.68;;
10811;SDS011;5458;51.496;7.334;2023-04-30T03:16:27;11.13;;;9.52;;
10811;SDS011;5458;51.496;7.334;2023-04-30T03:18:54;12.95;;;10.27;;
10811;SDS011;5458;51.496;7.334;2023-04-30T03:21:21;11.32;;;10.15;;
10811;SDS011;5458;51.496;7.334;2023-04-30T03:23:46;13.80;;;9.70;;
10811;SDS011;5458;51.496;7.334;2023-04-30T03:26:13;11.70;;;9.45;;
10811;SDS011;5458;51.496;7.334;2023-04-30T03:28:38;14.95;;;10.57;;
10811;SDS011;5458;51.496;7.334;2023-04-30T03:31:04;10.95;;;9.05;;
10811;SDS011;5458;51.496;7.334;2023-04-30T03:33:30;11.27;;;9.15;;
10811;SDS011;5458;51.496;7.334;2023-04-30T03:35:56;10.63;;;9.60;;
10811;SDS011;5458;51.496;7.334;2023-04-30T03:38:22;11.25;;;8.75;;
10811;SDS011;5458;51.496;7.334;2023-04-30T03:40:47;11.75;;;9.82;;
10811;SDS011;5458;51.496;7.334;2023-04-30T03:43:13;12.25;;;9.32;;
10811;SDS011;5458;51.496;7.334;2023-04-30T03:45:39;13.45;;;9.48;;
10811;SDS011;5458;51.496;7.334;2023-04-30T03:48:04;12.18;;;9.77;;
10811;SDS011;5458;51.496;7.334;2023-04-30T03:50:30;12.20;;;10.10;;
10811;SDS011;5458;51.496;7.334;2023-04-30T03:52:55;10.10;;;8.63;;
10811;SDS011;5458;51.496;7.334;2023-04-30T03:55:21;9.82;;;8.77;;
10811;SDS011;5458;51.496;7.334;2023-04-30T03:57:47;11.10;;;9.85;;
10811;SDS011;5458;51.496;7.334;2023-04-30T04:00:13;14.77;;;10.55;;
10811;SDS011;5458;51.496;7.334;2023-04-30T04:02:39;11.50;;;9.75;;
10811;SDS011;5458;51.496;7.334;2023-04-30T04:05:05;12.27;;;10.25;;
10811;SDS011;5458;51.496;7.334;2023-04-30T04:07:30;12.40;;;10.88;;
10811;SDS011;5458;51.496;7.334;2023-04-30T04:09:56;11.40;;;10.18;;
10811;SDS011;5458;51.496;7.334;2023-04-30T04:12:22;13.60;;;11.07;;
10811;SDS011;5458;51.496;7.334;2023-04-30T04:14:47;14.68;;;11.38;;
10811;SDS011;5458;51.496;7.334;2023-04-30T04:17:13;13.65;;;11.77;;
10811;SDS011;5458;51.496;7.334;2023-04-30T04:19:39;11.15;;;9.95;;
10811;SDS011;5458;51.496;7.334;2023-04-30T04:22:05;12.50;;;11.25;;
10811;SDS011;5458;51.496;7.334;2023-04-30T04:24:30;12.82;;;10.93;;
10811;SDS011;5458;51.496;7.334;2023-04-30T04:26:57;14.00;;;11.55;;
10811;SDS011;5458;51.496;7.334;2023-04-30T04:29:23;13.07;;;11.73;;
10811;SDS011;5458;51.496;7.334;2023-04-30T04:31:49;13.18;;;11.68;;
10811;SDS011;5458;51.496;7.334;2023-04-30T04:34:15;14.13;;;11.43;;
10811;SDS011;5458;51.496;7.334;2023-04-30T04:36:41;15.18;;;11.70;;
10811;SDS011;5458;51.496;7.334;2023-04-30T04:39:07;16.58;;;12.20;;
10811;SDS011;5458;51.496;7.334;2023-04-30T04:41:32;16.10;;;12.20;;
10811;SDS011;5458;51.496;7.334;2023-04-30T04:43:59;13.82;;;12.07;;
10811;SDS011;5458;51.496;7.334;2023-04-30T04:46:29;13.00;;;11.07;;
10811;SDS011;5458;51.496;7.334;2023-04-30T04:48:55;13.52;;;11.77;;
10811;SDS011;5458;51.496;7.334;2023-04-30T04:51:21;13.38;;;11.93;;
10811;SDS011;5458;51.496;7.334;2023-04-30T04:53:47;12.40;;;10.98;;
10811;SDS011;5458;51.496;7.334;2023-04-30T04:56:13;12.40;;;11.18;;
10811;SDS011;5458;51.496;7.334;2023-04-30T04:58:40;13.40;;;12.05;;
10811;SDS011;5458;51.496;7.334;2023-04-30T05:01:06;17.17;;;12.48;;
10811;SDS011;5458;51.496;7.334;2023-04-30T05:03:33;16.80;;;13.50;;
10811;SDS011;5458;51.496;7.334;2023-04-30T05:06:02;14.02;;;12.60;;
10811;SDS011;5458;51.496;7.334;2023-04-30T05:08:28;15.70;;;10.95;;
10811;SDS011;5458;51.496;7.334;2023-04-30T05:10:54;16.30;;;11.93;;
10811;SDS011;5458;51.496;7.334;2023-04-30T05:13:19;14.10;;;12.15;;
10811;SDS011;5458;51.496;7.334;2023-04-30T05:15:45;15.60;;;13.38;;
10811;SDS011;5458;51.496;7.334;2023-04-30T05:18:11;14.80;;;12.10;;
10811;SDS011;5458;51.496;7.334;2023-04-30T05:20:37;16.67;;;13.20;;
10811;SDS011;5458;51.496;7.334;2023-04-30T05:23:02;19.70;;;14.20;;
10811;SDS011;5458;51.496;7.334;2023-04-30T05:25:28;17.38;;;14.15;;
10811;SDS011;5458;51.496;7.334;2023-04-30T05:27:54;18.20;;;15.20;;
10811;SDS011;5458;51.496;7.334;2023-04-30T05:30:20;17.98;;;14.25;;
10811;SDS011;5458;51.496;7.334;2023-04-30T05:32:45;15.85;;;14.02;;
10811;SDS011;5458;51.496;7.334;2023-04-30T05:35:15;13.82;;;11.98;;
10811;SDS011;5458;51.496;7.334;2023-04-30T05:37:41;13.15;;;11.70;;
10811;SDS011;5458;51.496;7.334;2023-04-30T05:40:06;13.05;;;11.20;;
10811;SDS011;5458;51.496;7.334;2023-04-30T05:42:33;13.15;;;10.73;;
10811;SDS011;5458;51.496;7.334;2023-04-30T05:45:00;12.52;;;10.07;;
10811;SDS011;5458;51.496;7.334;2023-04-30T05:47:26;10.88;;;9.77;;
10811;SDS011;5458;51.496;7.334;2023-04-30T05:49:52;12.52;;;10.18;;
10811;SDS011;5458;51.496;7.334;2023-04-30T05:52:17;11.25;;;9.75;;
10811;SDS011;5458;51.496;7.334;2023-04-30T05:54:43;10.88;;;9.77;;
10811;SDS011;5458;51.496;7.334;2023-04-30T05:57:09;10.00;;;9.10;;
10811;SDS011;5458;51.496;7.334;2023-04-30T05:59:34;9.98;;;9.00;;
10811;SDS011;5458;51.496;7.334;2023-04-30T06:02:00;9.70;;;8.90;;
10811;SDS011;5458;51.496;7.334;2023-04-30T06:04:25;9.90;;;8.63;;
10811;SDS011;5458;51.496;7.334;2023-04-30T06:06:51;10.20;;;8.70;;
10811;SDS011;5458;51.496;7.334;2023-04-30T06:09:17;9.10;;;8.25;;
10811;SDS011;5458;51.496;7.334;2023-04-30T06:11:42;10.02;;;9.13;;
10811;SDS011;5458;51.496;7.334;2023-04-30T06:14:12;9.68;;;8.68;;
10811;SDS011;5458;51.496;7.334;2023-04-30T06:16:38;9.50;;;8.50;;
10811;SDS011;5458;51.496;7.334;2023-04-30T06:19:04;8.50;;;7.57;;
10811;SDS011;5458;51.496;7.334;2023-04-30T06:21:29;10.25;;;8.45;;
10811;SDS011;5458;51.496;7.334;2023-04-30T06:23:55;8.77;;;7.85;;
10811;SDS011;5458;51.496;7.334;2023-04-30T06:26:21;10.43;;;8.15;;
10811;SDS011;5458;51.496;7.334;2023-04-30T06:28:47;8.32;;;7.45;;
10811;SDS011;5458;51.496;7.334;2023-04-30T06:31:12;8.40;;;7.63;;
10811;SDS011;5458;51.496;7.334;2023-04-30T06:33:38;8.73;;;7.60;;
10811;SDS011;5458;51.496;7.334;2023-04-30T06:36:03;7.82;;;7.13;;
10811;SDS011;5458;51.496;7.334;2023-04-30T06:38:30;7.78;;;7.07;;
10811;SDS011;5458;51.496;7.334;2023-04-30T06:40:55;8.35;;;7.55;;
10811;SDS011;5458;51.496;7.334;2023-04-30T06:43:21;8.38;;;7.20;;
10811;SDS011;5458;51.496;7.334;2023-04-30T06:45:46;9.02;;;8.00;;
10811;SDS011;5458;51.496;7.334;2023-04-30T06:48:12;7.53;;;6.80;;
10811;SDS011;5458;51.496;7.334;2023-04-30T06:50:38;7.82;;;7.03;;
10811;SDS011;5458;51.496;7.334;2023-04-30T06:53:09;7.70;;;7.10;;
10811;SDS011;5458;51.496;7.334;2023-04-30T06:55:36;8.82;;;7.00;;
10811;SDS011;5458;51.496;7.334;2023-04-30T06:58:01;8.95;;;7.45;;
10811;SDS011;5458;51.496;7.334;2023-04-30T07:00:27;8.35;;;7.05;;
10811;SDS011;5458;51.496;7.334;2023-04-30T07:02:52;7.70;;;7.00;;
10811;SDS011;5458;51.496;7.334;2023-04-30T07:05:18;7.75;;;6.63;;
10811;SDS011;5458;51.496;7.334;2023-04-30T07:07:44;8.02;;;6.68;;
10811;SDS011;5458;51.496;7.334;2023-04-30T07:10:10;12.27;;;7.53;;
10811;SDS011;5458;51.496;7.334;2023-04-30T07:12:36;8.82;;;7.28;;
10811;SDS011;5458;51.496;7.334;2023-04-30T07:15:02;8.05;;;7.25;;
10811;SDS011;5458;51.496;7.334;2023-04-30T07:17:28;8.35;;;7.55;;
10811;SDS011;5458;51.496;7.334;2023-04-30T07:19:53;8.77;;;7.70;;
10811;SDS011;5458;51.496;7.334;2023-04-30T07:22:19;8.18;;;7.03;;
10811;SDS011;5458;51.496;7.334;2023-04-30T07:24:45;7.43;;;6.63;;
10811;SDS011;5458;51.496;7.334;2023-04-30T07:27:10;8.15;;;7.35;;
10811;SDS011;5458;51.496;7.334;2023-04-30T07:29:36;8.38;;;7.55;;
10811;SDS011;5458;51.496;7.334;2023-04-30T07:32:02;8.23;;;7.45;;
10811;SDS011;5458;51.496;7.334;2023-04-30T07:34:28;8.20;;;7.38;;
10811;SDS011;5458;51.496;7.334;2023-04-30T07:36:53;8.25;;;6.85;;
10811;SDS011;5458;51.496;7.334;2023-04-30T07:39:19;8.13;;;7.20;;
10811;SDS011;5458;51.496;7.334;2023-04-30T07:41:44;8.10;;;7.28;;
10811;SDS011;5458;51.496;7.334;2023-04-30T07:44:10;8.43;;;7.22;;
10811;SDS011;5458;51.496;7.334;2023-04-30T07:46:36;7.32;;;6.60;;
10811;SDS011;5458;51.496;7.334;2023-04-30T07:49:02;6.63;;;6.03;;
10811;SDS011;5458;51.496;7.334;2023-04-30T07:51:28;7.57;;;6.78;;
10811;SDS011;5458;51.496;7.334;2023-04-30T07:53:53;7.35;;;6.55;;
10811;SDS011;5458;51.496;7.334;2023-04-30T07:56:19;7.80;;;7.00;;
10811;SDS011;5458;51.496;7.334;2023-04-30T07:58:45;7.07;;;6.38;;
10811;SDS011;5458;51.496;7.334;2023-04-30T08:01:11;7.15;;;6.53;;
10811;SDS011;5458;51.496;7.334;2023-04-30T08:03:37;7.70;;;7.00;;
10811;SDS011;5458;51.496;7.334;2023-04-30T08:06:03;9.98;;;7.15;;
10811;SDS011;5458;51.496;7.334;2023-04-30T08:08:29;7.20;;;6.50;;
10811;SDS011;5458;51.496;7.334;2023-04-30T08:10:55;8.15;;;6.60;;
10811;SDS011;5458;51.496;7.334;2023-04-30T08:13:20;7.68;;;6.88;;
10811;SDS011;5458;51.496;7.334;2023-04-30T08:15:46;8.40;;;6.45;;
10811;SDS011;5458;51.496;7.334;2023-04-30T08:18:11;7.50;;;6.78;;
10811;SDS011;5458;51.496;7.334;2023-04-30T08:20:37;8.25;;;7.45;;
10811;SDS011;5458;51.496;7.334;2023-04-30T08:23:03;7.13;;;6.43;;
10811;SDS011;5458;51.496;7.334;2023-04-30T08:25:29;8.20;;;7.13;;
10811;SDS011;5458;51.496;7.334;2023-04-30T08:27:55;7.03;;;6.32;;
10811;SDS011;5458;51.496;7.334;2023-04-30T08:30:21;7.88;;;7.07;;
10811;SDS011;5458;51.496;7.334;2023-04-30T08:32:47;9.43;;;7.97;;
10811;SDS011;5458;51.496;7.334;2023-04-30T08:35:13;9.05;;;8.15;;
10811;SDS011;5458;51.496;7.334;2023-04-30T08:37:40;9.05;;;7.78;;
10811;SDS011;5458;51.496;7.334;2023-04-30T08:40:06;8.32;;;6.93;;
10811;SDS011;5458;51.496;7.334;2023-04-30T08:42:34;9.10;;;7.28;;
10811;SDS011;5458;51.496;7.334;2023-04-30T08:45:02;10.18;;;7.60;;
10811;SDS011;5458;51.496;7.334;2023-04-30T08:47:28;11.88;;;7.65;;
10811;SDS011;5458;51.496;7.334;2023-04-30T08:49:54;9.75;;;7.55;;
10811;SDS011;5458;51.496;7.334;2023-04-30T08:52:20;6.80;;;6.10;;
10811;SDS011;5458;51.496;7.334;2023-04-30T08:54:46;7.35;;;6.18;;
10811;SDS011;5458;51.496;7.334;2023-04-30T08:57:14;10.07;;;7.65;;
10811;SDS011;5458;51.496;7.334;2023-04-30T08:59:39;9.25;;;6.97;;
10811;SDS011;5458;51.496;7.334;2023-04-30T09:02:05;6.60;;;5.97;;
10811;SDS011;5458;51.496;7.334;2023-04-30T09:04:31;9.40;;;6.05;;
10811;SDS011;5458;51.496;7.334;2023-04-30T09:06:57;8.15;;;6.05;;
10811;SDS011;5458;51.496;7.334;2023-04-30T09:09:28;7.75;;;6.68;;
10811;SDS011;5458;51.496;7.334;2023-04-30T09:12:15;6.63;;;5.10;;
10811;SDS011;5458;51.496;7.334;2023-04-30T09:14:59;6.85;;;5.88;;
10811;SDS011;5458;51.496;7.334;2023-04-30T09:17:33;6.38;;;5.72;;
10811;SDS011;5458;51.496;7.334;2023-04-30T09:20:09;6.63;;;5.93;;
10811;SDS011;5458;51.496;7.334;2023-04-30T09:22:36;6.78;;;5.50;;
10811;SDS011;5458;51.496;7.334;2023-04-30T09:25:03;6.40;;;5.25;;
10811;SDS011;5458;51.496;7.334;2023-04-30T09:27:29;5.20;;;4.70;;
10811;SDS011;5458;51.496;7.334;2023-04-30T09:29:55;7.68;;;6.82;;
10811;SDS011;5458;51.496;7.334;2023-04-30T09:32:20;6.45;;;5.85;;
10811;SDS011;5458;51.496;7.334;2023-04-30T09:34:46;5.10;;;4.65;;
10811;SDS011;5458;51.496;7.334;2023-04-30T09:37:12;5.25;;;4.75;;
10811;SDS011;5458;51.496;7.334;2023-04-30T09:39:53;5.43;;;4.85;;
10811;SDS011;5458;51.496;7.334;2023-04-30T09:42:19;4.95;;;4.40;;
10811;SDS011;5458;51.496;7.334;2023-04-30T09:44:45;4.93;;;4.40;;
10811;SDS011;5458;51.496;7.334;2023-04-30T09:47:20;5.47;;;4.90;;
10811;SDS011;5458;51.496;7.334;2023-04-30T09:49:49;6.40;;;5.28;;
10811;SDS011;5458;51.496;7.334;2023-04-30T09:52:16;5.53;;;4.95;;
10811;SDS011;5458;51.496;7.334;2023-04-30T09:54:43;5.45;;;4.95;;
10811;SDS011;5458;51.496;7.334;2023-04-30T09:57:10;5.20;;;4.43;;
10811;SDS011;5458;51.496;7.334;2023-04-30T09:59:37;6.03;;;4.20;;
10811;SDS011;5458;51.496;7.334;2023-04-30T10:02:07;5.43;;;4.00;;
10811;SDS011;5458;51.496;7.334;2023-04-30T10:07:01;5.00;;;4.43;;
10811;SDS011;5458;51.496;7.334;2023-04-30T10:09:38;5.90;;;5.30;;
10811;SDS011;5458;51.496;7.334;2023-04-30T10:12:10;5.03;;;4.28;;
10811;SDS011;5458;51.496;7.334;2023-04-30T10:14:39;5.20;;;4.30;;
10811;SDS011;5458;51.496;7.334;2023-04-30T10:17:12;4.40;;;4.00;;
10811;SDS011;5458;51.496;7.334;2023-04-30T10:22:31;3.20;;;2.65;;
10811;SDS011;5458;51.496;7.334;2023-04-30T10:24:58;4.47;;;4.00;;
10811;SDS011;5458;51.496;7.334;2023-04-30T10:27:26;3.53;;;3.10;;
10811;SDS011;5458;51.496;7.334;2023-04-30T10:29:53;3.83;;;3.53;;
10811;SDS011;5458;51.496;7.334;2023-04-30T10:32:19;4.30;;;3.90;;
10811;SDS011;5458;51.496;7.334;2023-04-30T10:34:54;3.88;;;3.55;;
10811;SDS011;5458;51.496;7.334;2023-04-30T10:37:52;4.75;;;4.10;;
10811;SDS011;5458;51.496;7.334;2023-04-30T10:40:25;3.25;;;2.95;;
10811;SDS011;5458;51.496;7.334;2023-04-30T10:42:52;3.17;;;2.85;;
10811;SDS011;5458;51.496;7.334;2023-04-30T10:45:22;5.63;;;3.42;;
10811;SDS011;5458;51.496;7.334;2023-04-30T10:48:03;4.60;;;3.63;;
10811;SDS011;5458;51.496;7.334;2023-04-30T10:50:31;3.92;;;3.35;;
10811;SDS011;5458;51.496;7.334;2023-04-30T10:53:00;3.25;;;3.05;;
10811;SDS011;5458;51.496;7.334;2023-04-30T10:55:29;4.30;;;3.83;;
10811;SDS011;5458;51.496;7.334;2023-04-30T10:57:59;4.82;;;3.25;;
10811;SDS011;5458;51.496;7.334;2023-04-30T11:00:25;5.82;;;3.88;;
10811;SDS011;5458;51.496;7.334;2023-04-30T11:02:56;3.53;;;3.20;;
10811;SDS011;5458;51.496;7.334;2023-04-30T11:05:34;5.15;;;4.07;;
10811;SDS011;5458;51.496;7.334;2023-04-30T11:08:03;4.43;;;3.97;;
10811;SDS011;5458;51.496;7.334;2023-04-30T11:10:33;3.60;;;3.20;;
10811;SDS011;5458;51.496;7.334;2023-04-30T11:13:03;3.45;;;3.15;;
10811;SDS011;5458;51.496;7.334;2023-04-30T11:16:12;3.97;;;3.08;;
10811;SDS011;5458;51.496;7.334;2023-04-30T11:18:50;2.63;;;2.05;;
10811;SDS011;5458;51.496;7.334;2023-04-30T11:21:16;3.10;;;2.90;;
10811;SDS011;5458;51.496;7.334;2023-04-30T11:23:47;3.45;;;3.00;;
10811;SDS011;5458;51.496;7.334;2023-04-30T11:26:13;2.92;;;2.72;;
10811;SDS011;5458;51.496;7.334;2023-04-30T11:28:39;3.78;;;3.47;;
10811;SDS011;5458;51.496;7.334;2023-04-30T11:31:16;3.67;;;3.38;;
10811;SDS011;5458;51.496;7.334;2023-04-30T11:33:42;3.80;;;3.50;;
10811;SDS011;5458;51.496;7.334;2023-04-30T11:36:07;3.47;;;3.05;;
10811;SDS011;5458;51.496;7.334;2023-04-30T11:38:34;3.90;;;2.83;;
10811;SDS011;5458;51.496;7.334;2023-04-30T11:41:03;3.58;;;3.25;;
10811;SDS011;5458;51.496;7.334;2023-04-30T11:43:29;3.83;;;2.95;;
10811;SDS011;5458;51.496;7.334;2023-04-30T11:46:12;4.35;;;3.10;;
10811;SDS011;5458;51.496;7.334;2023-04-30T11:48:42;3.95;;;3.25;;
10811;SDS011;5458;51.496;7.334;2023-04-30T11:53:41;3.67;;;3.10;;
10811;SDS011;5458;51.496;7.334;2023-04-30T11:56:07;3.58;;;2.72;;
10811;SDS011;5458;51.496;7.334;2023-04-30T11:58:34;3.33;;;2.33;;
10811;SDS011;5458;51.496;7.334;2023-04-30T12:01:02;3.08;;;2.75;;
10811;SDS011;5458;51.496;7.334;2023-04-30T12:03:28;1.95;;;1.85;;
10811;SDS011;5458;51.496;7.334;2023-04-30T12:05:54;4.35;;;2.42;;
10811;SDS011;5458;51.496;7.334;2023-04-30T12:08:20;3.47;;;2.70;;
10811;SDS011;5458;51.496;7.334;2023-04-30T12:10:45;5.97;;;2.70;;
10811;SDS011;5458;51.496;7.334;2023-04-30T12:13:14;2.00;;;1.90;;
10811;SDS011;5458;51.496;7.334;2023-04-30T12:15:42;4.60;;;2.70;;
10811;SDS011;5458;51.496;7.334;2023-04-30T12:18:21;1.67;;;1.58;;
10811;SDS011;5458;51.496;7.334;2023-04-30T12:20:46;2.75;;;1.75;;
10811;SDS011;5458;51.496;7.334;2023-04-30T12:23:12;4.28;;;2.45;;
10811;SDS011;5458;51.496;7.334;2023-04-30T12:25:41;3.75;;;3.03;;
10811;SDS011;5458;51.496;7.334;2023-04-30T12:28:08;2.40;;;2.08;;
10811;SDS011;5458;51.496;7.334;2023-04-30T12:30:35;2.25;;;1.80;;
10811;SDS011;5458;51.496;7.334;2023-04-30T12:33:01;4.70;;;2.33;;
10811;SDS011;5458;51.496;7.334;2023-04-30T12:35:28;3.83;;;2.67;;
10811;SDS011;5458;51.496;7.334;2023-04-30T12:38:05;2.20;;;2.00;;
10811;SDS011;5458;51.496;7.334;2023-04-30T12:40:32;2.47;;;1.55;;
10811;SDS011;5458;51.496;7.334;2023-04-30T12:43:02;2.90;;;2.17;;
10811;SDS011;5458;51.496;7.334;2023-04-30T12:45:45;2.28;;;1.90;;
10811;SDS011;5458;51.496;7.334;2023-04-30T12:48:12;5.10;;;2.92;;
10811;SDS011;5458;51.496;7.334;2023-04-30T12:50:39;3.40;;;2.22;;
10811;SDS011;5458;51.496;7.334;2023-04-30T12:53:05;3.95;;;3.13;;
10811;SDS011;5458;51.496;7.334;2023-04-30T12:55:33;4.60;;;2.97;;
10811;SDS011;5458;51.496;7.334;2023-04-30T12:58:05;9.23;;;3.97;;
10811;SDS011;5458;51.496;7.334;2023-04-30T13:00:50;4.05;;;2.83;;
10811;SDS011;5458;51.496;7.334;2023-04-30T13:03:19;4.15;;;3.30;;
10811;SDS011;5458;51.496;7.334;2023-04-30T13:05:51;3.38;;;2.75;;
10811;SDS011;5458;51.496;7.334;2023-04-30T13:08:18;3.08;;;2.45;;
10811;SDS011;5458;51.496;7.334;2023-04-30T13:10:45;3.55;;;2.95;;
10811;SDS011;5458;51.496;7.334;2023-04-30T13:13:11;1.60;;;1.50;;
10811;SDS011;5458;51.496;7.334;2023-04-30T13:15:38;3.90;;;2.00;;
10811;SDS011;5458;51.496;7.334;2023-04-30T13:18:05;3.22;;;1.88;;
10811;SDS011;5458;51.496;7.334;2023-04-30T13:20:33;2.45;;;1.90;;
10811;SDS011;5458;51.496;7.334;2023-04-30T13:23:02;2.15;;;1.95;;
10811;SDS011;5458;51.496;7.334;2023-04-30T13:25:29;2.38;;;1.90;;
10811;SDS011;5458;51.496;7.334;2023-04-30T13:27:56;2.85;;;2.17;;
10811;SDS011;5458;51.496;7.334;2023-04-30T13:30:22;1.98;;;1.77;;
10811;SDS011;5458;51.496;7.334;2023-04-30T13:32:48;1.80;;;1.70;;
10811;SDS011;5458;51.496;7.334;2023-04-30T13:35:14;4.07;;;2.13;;
10811;SDS011;5458;51.496;7.334;2023-04-30T13:37:40;2.03;;;1.60;;
10811;SDS011;5458;51.496;7.334;2023-04-30T13:40:06;3.05;;;2.05;;
10811;SDS011;5458;51.496;7.334;2023-04-30T13:42:35;1.77;;;1.52;;
10811;SDS011;5458;51.496;7.334;2023-04-30T13:45:02;2.13;;;1.30;;
10811;SDS011;5458;51.496;7.334;2023-04-30T13:47:28;3.88;;;2.05;;
10811;SDS011;5458;51.496;7.334;2023-04-30T13:49:53;3.33;;;2.55;;
10811;SDS011;5458;51.496;7.334;2023-04-30T13:52:19;2.75;;;1.85;;
10811;SDS011;5458;51.496;7.334;2023-04-30T13:54:44;3.97;;;2.25;;
10811;SDS011;5458;51.496;7.334;2023-04-30T13:57:10;2.22;;;1.85;;
10811;SDS011;5458;51.496;7.334;2023-04-30T13:59:36;2.75;;;2.40;;
10811;SDS011;5458;51.496;7.334;2023-04-30T14:02:02;3.88;;;2.30;;
10811;SDS011;5458;51.496;7.334;2023-04-30T14:04:28;2.17;;;1.80;;
10811;SDS011;5458;51.496;7.334;2023-04-30T14:06:55;3.28;;;1.92;;
10811;SDS011;5458;51.496;7.334;2023-04-30T14:09:21;2.40;;;1.52;;
10811;SDS011;5458;51.496;7.334;2023-04-30T14:11:47;1.52;;;0.90;;
10811;SDS011;5458;51.496;7.334;2023-04-30T14:14:12;2.10;;;0.80;;
10811;SDS011;5458;51.496;7.334;2023-04-30T14:16:38;1.23;;;1.05;;
10811;SDS011;5458;51.496;7.334;2023-04-30T14:19:04;2.38;;;0.80;;
10811;SDS011;5458;51.496;7.334;2023-04-30T14:21:30;1.00;;;0.80;;
10811;SDS011;5458;51.496;7.334;2023-04-30T14:23:57;1.77;;;1.00;;
10811;SDS011;5458;51.496;7.334;2023-04-30T14:26:22;1.98;;;1.00;;
10811;SDS011;5458;51.496;7.334;2023-04-30T14:28:48;2.38;;;1.23;;
10811;SDS011;5458;51.496;7.334;2023-04-30T14:31:14;2.55;;;1.30;;
10811;SDS011;5458;51.496;7.334;2023-04-30T14:33:39;2.10;;;1.55;;
10811;SDS011;5458;51.496;7.334;2023-04-30T14:36:05;1.73;;;0.95;;
10811;SDS011;5458;51.496;7.334;2023-04-30T14:38:32;1.08;;;0.90;;
10811;SDS011;5458;51.496;7.334;2023-04-30T14:40:57;2.65;;;1.20;;
10811;SDS011;5458;51.496;7.334;2023-04-30T14:43:23;2.75;;;1.00;;
10811;SDS011;5458;51.496;7.334;2023-04-30T14:45:49;1.65;;;1.10;;
10811;SDS011;5458;51.496;7.334;2023-04-30T14:48:15;1.27;;;1.17;;
10811;SDS011;5458;51.496;7.334;2023-04-30T14:50:41;3.35;;;1.23;;
10811;SDS011;5458;51.496;7.334;2023-04-30T14:53:08;2.00;;;1.00;;
10811;SDS011;5458;51.496;7.334;2023-04-30T14:55:35;3.40;;;1.20;;
10811;SDS011;5458;51.496;7.334;2023-04-30T14:58:01;1.27;;;1.17;;
10811;SDS011;5458;51.496;7.334;2023-04-30T15:00:27;1.25;;;1.02;;
10811;SDS011;5458;51.496;7.334;2023-04-30T15:02:53;2.15;;;1.15;;
10811;SDS011;5458;51.496;7.334;2023-04-30T15:05:19;1.95;;;0.93;;
10811;SDS011;5458;51.496;7.334;2023-04-30T15:07:45;1.45;;;0.95;;
10811;SDS011;5458;51.496;7.334;2023-04-30T15:10:10;1.30;;;1.00;;
10811;SDS011;5458;51.496;7.334;2023-04-30T15:12:36;1.85;;;1.15;;
10811;SDS011;5458;51.496;7.334;2023-04-30T15:17:55;1.85;;;0.98;;